sensor_id;sensor_type;location;lat;lon;timestamp;temperature;humidity
37518;DHT22;23366;52.498;13.446;2023-02-28T00:00:24;3.10;99.90
37518;DHT22;23366;52.498;13.446;2023-02-28T00:02:50;3.10;99.90
37518;DHT22;23366;52.498;13.446;2023-02-28T00:05:18;3.10;99.90
37518;DHT22;23366;52.498;13.446;2023-02-28T00:07:44;3.10;99.90
37518;DHT22;23366;52.498;13.446;2023-02-28T00:10:12;3.10;99.90
37518;DHT22;23366;52.498;13.446;2023-02-28T00:12:38;3.10;99.90
37518;DHT22;23366;52.498;13.446;2023-02-28T00:15:10;3.10;99.90
37518;DHT22;23366;52.498;13.446;2023-02-28T00:17:37;3.00;99.90
37518;DHT22;23366;52.498;13.446;2023-02-28T00:20:04;3.00;99.90
37518;DHT22;23366;52.498;13.446;2023-02-28T00:22:33;3.00;99.90
37518;DHT22;23366;52.498;13.446;2023-02-28T00:24:58;3.00;99.90
37518;DHT22;23366;52.498;13.446;2023-02-28T00:27:24;3.00;99.90
37518;DHT22;23366;52.498;13.446;2023-02-28T00:29:49;2.90;99.90
37518;DHT22;23366;52.498;13.446;2023-02-28T00:32:15;2.90;99.90
37518;DHT22;23366;52.498;13.446;2023-02-28T00:34:41;2.90;99.90
37518;DHT22;23366;52.498;13.446;2023-02-28T00:37:09;2.90;99.90
37518;DHT22;23366;52.498;13.446;2023-02-28T00:39:36;2.90;99.90
37518;DHT22;23366;52.498;13.446;2023-02-28T00:42:03;2.80;99.90
37518;DHT22;23366;52.498;13.446;2023-02-28T00:44:29;2.80;99.90
37518;DHT22;23366;52.498;13.446;2023-02-28T00:46:55;2.80;99.90
37518;DHT22;23366;52.498;13.446;2023-02-28T00:49:22;2.80;99.90
37518;DHT22;23366;52.498;13.446;2023-02-28T00:51:47;2.80;99.90
37518;DHT22;23366;52.498;13.446;2023-02-28T00:54:13;2.90;99.90
37518;DHT22;23366;52.498;13.446;2023-02-28T00:56:39;2.90;99.90
37518;DHT22;23366;52.498;13.446;2023-02-28T00:59:05;2.90;99.90
37518;DHT22;23366;52.498;13.446;2023-02-28T01:01:31;2.90;99.90
37518;DHT22;23366;52.498;13.446;2023-02-28T01:03:57;2.80;99.90
37518;DHT22;23366;52.498;13.446;2023-02-28T01:06:22;2.80;99.90
37518;DHT22;23366;52.498;13.446;2023-02-28T01:08:48;2.80;99.90
37518;DHT22;23366;52.498;13.446;2023-02-28T01:11:16;2.80;99.90
37518;DHT22;23366;52.498;13.446;2023-02-28T01:13:43;2.70;99.90
37518;DHT22;23366;52.498;13.446;2023-02-28T01:16:09;2.80;99.90
37518;DHT22;23366;52.498;13.446;2023-02-28T01:18:36;2.70;99.90
37518;DHT22;23366;52.498;13.446;2023-02-28T01:21:10;2.80;99.90
37518;DHT22;23366;52.498;13.446;2023-02-28T01:23:37;2.70;99.90
37518;DHT22;23366;52.498;13.446;2023-02-28T01:26:05;2.80;99.90
37518;DHT22;23366;52.498;13.446;2023-02-28T01:28:30;2.70;99.90
37518;DHT22;23366;52.498;13.446;2023-02-28T01:30:56;2.70;99.90
37518;DHT22;23366;52.498;13.446;2023-02-28T01:33:21;2.70;99.90
37518;DHT22;23366;52.498;13.446;2023-02-28T01:35:47;2.60;99.90
37518;DHT22;23366;52.498;13.446;2023-02-28T01:38:13;2.60;99.90
37518;DHT22;23366;52.498;13.446;2023-02-28T01:40:39;2.50;99.90
37518;DHT22;23366;52.498;13.446;2023-02-28T01:43:19;2.50;99.90
37518;DHT22;23366;52.498;13.446;2023-02-28T01:45:45;2.40;99.90
37518;DHT22;23366;52.498;13.446;2023-02-28T01:48:10;2.40;99.90
37518;DHT22;23366;52.498;13.446;2023-02-28T01:50:42;2.40;99.90
37518;DHT22;23366;52.498;13.446;2023-02-28T01:53:13;2.30;99.90
37518;DHT22;23366;52.498;13.446;2023-02-28T01:55:41;2.30;99.90
37518;DHT22;23366;52.498;13.446;2023-02-28T01:58:08;2.30;99.90
37518;DHT22;23366;52.498;13.446;2023-02-28T02:00:34;2.20;99.90
37518;DHT22;23366;52.498;13.446;2023-02-28T02:03:06;2.20;99.90
37518;DHT22;23366;52.498;13.446;2023-02-28T02:05:36;2.20;99.90
37518;DHT22;23366;52.498;13.446;2023-02-28T02:08:09;2.20;99.90
37518;DHT22;23366;52.498;13.446;2023-02-28T02:10:41;2.10;99.90
37518;DHT22;23366;52.498;13.446;2023-02-28T02:18:47;2.10;99.90
37518;DHT22;23366;52.498;13.446;2023-02-28T02:30:02;2.00;99.90
37518;DHT22;23366;52.498;13.446;2023-02-28T02:32:38;1.90;99.90
37518;DHT22;23366;52.498;13.446;2023-02-28T02:37:52;1.90;99.90
37518;DHT22;23366;52.498;13.446;2023-02-28T02:40:20;1.90;99.90
37518;DHT22;23366;52.498;13.446;2023-02-28T02:43:03;1.90;99.90
37518;DHT22;23366;52.498;13.446;2023-02-28T02:45:39;1.90;99.90
37518;DHT22;23366;52.498;13.446;2023-02-28T02:48:08;1.90;99.90
37518;DHT22;23366;52.498;13.446;2023-02-28T02:50:55;1.90;99.90
37518;DHT22;23366;52.498;13.446;2023-02-28T02:53:26;1.80;99.90
37518;DHT22;23366;52.498;13.446;2023-02-28T02:55:54;1.80;99.90
37518;DHT22;23366;52.498;13.446;2023-02-28T02:58:24;1.80;99.90
37518;DHT22;23366;52.498;13.446;2023-02-28T03:00:54;1.80;99.90
37518;DHT22;23366;52.498;13.446;2023-02-28T03:03:22;1.80;99.90
37518;DHT22;23366;52.498;13.446;2023-02-28T03:05:59;1.80;99.90
37518;DHT22;23366;52.498;13.446;2023-02-28T03:08:26;1.80;99.90
37518;DHT22;23366;52.498;13.446;2023-02-28T03:10:57;1.80;99.90
37518;DHT22;23366;52.498;13.446;2023-02-28T03:19:31;1.80;99.90
37518;DHT22;23366;52.498;13.446;2023-02-28T03:22:36;1.80;99.90
37518;DHT22;23366;52.498;13.446;2023-02-28T03:25:05;1.80;99.90
37518;DHT22;23366;52.498;13.446;2023-02-28T03:30:22;1.80;99.90
37518;DHT22;23366;52.498;13.446;2023-02-28T03:32:52;1.80;99.90
37518;DHT22;23366;52.498;13.446;2023-02-28T03:35:31;1.80;99.90
37518;DHT22;23366;52.498;13.446;2023-02-28T03:38:08;1.70;99.90
37518;DHT22;23366;52.498;13.446;2023-02-28T03:40:37;1.70;99.90
37518;DHT22;23366;52.498;13.446;2023-02-28T03:43:09;1.70;99.90
37518;DHT22;23366;52.498;13.446;2023-02-28T03:45:37;1.70;99.90
37518;DHT22;23366;52.498;13.446;2023-02-28T03:48:15;1.70;99.90
37518;DHT22;23366;52.498;13.446;2023-02-28T03:50:44;1.60;99.90
37518;DHT22;23366;52.498;13.446;2023-02-28T03:53:20;1.60;99.90
37518;DHT22;23366;52.498;13.446;2023-02-28T03:58:51;1.60;99.90
37518;DHT22;23366;52.498;13.446;2023-02-28T04:01:23;1.50;99.90
37518;DHT22;23366;52.498;13.446;2023-02-28T04:03:51;1.60;99.90
37518;DHT22;23366;52.498;13.446;2023-02-28T04:06:20;1.60;99.90
37518;DHT22;23366;52.498;13.446;2023-02-28T04:08:46;1.60;99.90
37518;DHT22;23366;52.498;13.446;2023-02-28T04:11:20;1.50;99.90
37518;DHT22;23366;52.498;13.446;2023-02-28T04:13:46;1.50;99.90
37518;DHT22;23366;52.498;13.446;2023-02-28T04:16:12;1.50;99.90
37518;DHT22;23366;52.498;13.446;2023-02-28T04:18:38;1.40;99.90
37518;DHT22;23366;52.498;13.446;2023-02-28T04:21:05;1.40;99.90
37518;DHT22;23366;52.498;13.446;2023-02-28T04:23:31;1.40;99.90
37518;DHT22;23366;52.498;13.446;2023-02-28T04:25:57;1.40;99.90
37518;DHT22;23366;52.498;13.446;2023-02-28T04:28:22;1.40;99.90
37518;DHT22;23366;52.498;13.446;2023-02-28T04:30:54;1.50;99.90
37518;DHT22;23366;52.498;13.446;2023-02-28T04:33:20;1.50;99.90
37518;DHT22;23366;52.498;13.446;2023-02-28T04:35:45;1.40;99.90
37518;DHT22;23366;52.498;13.446;2023-02-28T04:38:11;1.40;99.90
37518;DHT22;23366;52.498;13.446;2023-02-28T04:40:36;1.50;99.90
37518;DHT22;23366;52.498;13.446;2023-02-28T04:43:02;1.40;99.90
37518;DHT22;23366;52.498;13.446;2023-02-28T04:45:29;1.40;99.90
37518;DHT22;23366;52.498;13.446;2023-02-28T04:47:59;1.40;99.90
37518;DHT22;23366;52.498;13.446;2023-02-28T04:50:24;1.40;99.90
37518;DHT22;23366;52.498;13.446;2023-02-28T04:52:52;1.40;99.90
37518;DHT22;23366;52.498;13.446;2023-02-28T04:55:17;1.40;99.90
37518;DHT22;23366;52.498;13.446;2023-02-28T04:57:43;1.30;99.90
37518;DHT22;23366;52.498;13.446;2023-02-28T05:00:11;1.30;99.90
37518;DHT22;23366;52.498;13.446;2023-02-28T05:02:38;1.30;99.90
37518;DHT22;23366;52.498;13.446;2023-02-28T05:05:04;1.20;99.90
37518;DHT22;23366;52.498;13.446;2023-02-28T05:07:30;1.20;99.90
37518;DHT22;23366;52.498;13.446;2023-02-28T05:09:55;1.20;99.90
37518;DHT22;23366;52.498;13.446;2023-02-28T05:12:21;1.20;99.90
37518;DHT22;23366;52.498;13.446;2023-02-28T05:14:46;1.20;99.90
37518;DHT22;23366;52.498;13.446;2023-02-28T05:17:14;1.10;99.90
37518;DHT22;23366;52.498;13.446;2023-02-28T05:19:46;1.10;99.90
37518;DHT22;23366;52.498;13.446;2023-02-28T05:22:13;1.10;99.90
37518;DHT22;23366;52.498;13.446;2023-02-28T05:24:40;1.10;99.90
37518;DHT22;23366;52.498;13.446;2023-02-28T05:27:08;1.10;99.90
37518;DHT22;23366;52.498;13.446;2023-02-28T05:29:33;1.10;99.90
37518;DHT22;23366;52.498;13.446;2023-02-28T05:32:02;1.10;99.90
37518;DHT22;23366;52.498;13.446;2023-02-28T05:34:28;1.10;99.90
37518;DHT22;23366;52.498;13.446;2023-02-28T05:36:53;1.10;99.90
37518;DHT22;23366;52.498;13.446;2023-02-28T05:39:19;1.10;99.90
37518;DHT22;23366;52.498;13.446;2023-02-28T05:41:44;1.00;99.90
37518;DHT22;23366;52.498;13.446;2023-02-28T05:44:10;1.10;99.90
37518;DHT22;23366;52.498;13.446;2023-02-28T05:46:36;1.00;99.90
37518;DHT22;23366;52.498;13.446;2023-02-28T05:49:04;1.10;99.90
37518;DHT22;23366;52.498;13.446;2023-02-28T05:51:30;1.10;99.90
37518;DHT22;23366;52.498;13.446;2023-02-28T05:53:59;1.10;99.90
37518;DHT22;23366;52.498;13.446;2023-02-28T05:56:27;1.00;99.90
37518;DHT22;23366;52.498;13.446;2023-02-28T05:58:53;1.10;99.90
37518;DHT22;23366;52.498;13.446;2023-02-28T06:01:32;1.10;99.90
37518;DHT22;23366;52.498;13.446;2023-02-28T06:03:59;1.10;99.90
37518;DHT22;23366;52.498;13.446;2023-02-28T06:06:25;1.10;99.90
37518;DHT22;23366;52.498;13.446;2023-02-28T06:08:50;1.10;99.90
37518;DHT22;23366;52.498;13.446;2023-02-28T06:11:16;1.10;99.90
37518;DHT22;23366;52.498;13.446;2023-02-28T06:13:41;1.20;99.90
37518;DHT22;23366;52.498;13.446;2023-02-28T06:16:10;1.20;99.90
37518;DHT22;23366;52.498;13.446;2023-02-28T06:18:35;1.20;99.90
37518;DHT22;23366;52.498;13.446;2023-02-28T06:21:02;1.30;99.90
37518;DHT22;23366;52.498;13.446;2023-02-28T06:23:28;1.30;99.90
37518;DHT22;23366;52.498;13.446;2023-02-28T06:25:53;1.40;99.90
37518;DHT22;23366;52.498;13.446;2023-02-28T06:28:22;1.40;99.90
37518;DHT22;23366;52.498;13.446;2023-02-28T06:30:48;1.50;99.90
37518;DHT22;23366;52.498;13.446;2023-02-28T06:33:13;1.50;99.90
37518;DHT22;23366;52.498;13.446;2023-02-28T06:35:39;1.60;99.90
37518;DHT22;23366;52.498;13.446;2023-02-28T06:38:05;1.70;99.90
37518;DHT22;23366;52.498;13.446;2023-02-28T06:40:30;1.90;99.90
37518;DHT22;23366;52.498;13.446;2023-02-28T06:42:59;2.10;99.90
37518;DHT22;23366;52.498;13.446;2023-02-28T06:45:25;2.40;99.90
37518;DHT22;23366;52.498;13.446;2023-02-28T06:47:51;2.90;99.90
37518;DHT22;23366;52.498;13.446;2023-02-28T06:50:17;3.40;99.90
37518;DHT22;23366;52.498;13.446;2023-02-28T06:52:44;3.90;99.90
37518;DHT22;23366;52.498;13.446;2023-02-28T06:55:10;4.40;99.90
37518;DHT22;23366;52.498;13.446;2023-02-28T06:57:36;4.80;99.90
37518;DHT22;23366;52.498;13.446;2023-02-28T07:00:09;5.20;99.90
37518;DHT22;23366;52.498;13.446;2023-02-28T07:02:35;5.60;99.90
37518;DHT22;23366;52.498;13.446;2023-02-28T07:05:01;5.90;99.90
37518;DHT22;23366;52.498;13.446;2023-02-28T07:07:27;6.00;99.90
37518;DHT22;23366;52.498;13.446;2023-02-28T07:09:52;6.50;99.90
37518;DHT22;23366;52.498;13.446;2023-02-28T07:12:18;6.60;99.90
37518;DHT22;23366;52.498;13.446;2023-02-28T07:14:43;6.90;99.30
37518;DHT22;23366;52.498;13.446;2023-02-28T07:17:10;7.00;98.60
37518;DHT22;23366;52.498;13.446;2023-02-28T07:19:38;7.20;96.70
37518;DHT22;23366;52.498;13.446;2023-02-28T07:22:03;7.20;97.10
37518;DHT22;23366;52.498;13.446;2023-02-28T07:24:29;7.10;96.80
37518;DHT22;23366;52.498;13.446;2023-02-28T07:26:55;7.60;96.50
37518;DHT22;23366;52.498;13.446;2023-02-28T07:29:21;7.80;94.50
37518;DHT22;23366;52.498;13.446;2023-02-28T07:31:46;7.80;94.20
37518;DHT22;23366;52.498;13.446;2023-02-28T07:34:13;8.20;92.90
37518;DHT22;23366;52.498;13.446;2023-02-28T07:36:39;8.30;93.10
37518;DHT22;23366;52.498;13.446;2023-02-28T07:39:04;8.50;91.70
37518;DHT22;23366;52.498;13.446;2023-02-28T07:41:30;8.50;90.90
37518;DHT22;23366;52.498;13.446;2023-02-28T07:43:59;8.60;90.90
37518;DHT22;23366;52.498;13.446;2023-02-28T07:46:25;8.90;89.90
37518;DHT22;23366;52.498;13.446;2023-02-28T07:48:51;9.40;86.50
37518;DHT22;23366;52.498;13.446;2023-02-28T07:51:16;9.60;83.60
37518;DHT22;23366;52.498;13.446;2023-02-28T07:53:42;9.80;83.40
37518;DHT22;23366;52.498;13.446;2023-02-28T07:56:08;9.90;82.10
37518;DHT22;23366;52.498;13.446;2023-02-28T07:58:33;10.20;79.80
37518;DHT22;23366;52.498;13.446;2023-02-28T08:01:08;10.60;78.50
37518;DHT22;23366;52.498;13.446;2023-02-28T08:03:35;11.20;75.90
37518;DHT22;23366;52.498;13.446;2023-02-28T08:06:02;11.90;72.90
37518;DHT22;23366;52.498;13.446;2023-02-28T08:08:28;12.10;71.20
37518;DHT22;23366;52.498;13.446;2023-02-28T08:11:00;12.10;69.20
37518;DHT22;23366;52.498;13.446;2023-02-28T08:13:27;11.60;70.50
37518;DHT22;23366;52.498;13.446;2023-02-28T08:15:56;11.90;67.40
37518;DHT22;23366;52.498;13.446;2023-02-28T08:18:22;11.80;66.50
37518;DHT22;23366;52.498;13.446;2023-02-28T08:20:48;12.20;65.30
37518;DHT22;23366;52.498;13.446;2023-02-28T08:23:14;12.30;63.20
37518;DHT22;23366;52.498;13.446;2023-02-28T08:25:40;12.50;62.70
37518;DHT22;23366;52.498;13.446;2023-02-28T08:28:05;12.40;63.00
37518;DHT22;23366;52.498;13.446;2023-02-28T08:30:31;12.70;61.60
37518;DHT22;23366;52.498;13.446;2023-02-28T08:32:57;12.70;60.40
37518;DHT22;23366;52.498;13.446;2023-02-28T08:35:23;12.30;61.80
37518;DHT22;23366;52.498;13.446;2023-02-28T08:37:49;11.80;62.00
37518;DHT22;23366;52.498;13.446;2023-02-28T08:40:15;10.90;62.10
37518;DHT22;23366;52.498;13.446;2023-02-28T08:42:47;10.50;63.20
37518;DHT22;23366;52.498;13.446;2023-02-28T08:45:13;9.70;64.90
37518;DHT22;23366;52.498;13.446;2023-02-28T08:47:39;9.30;66.10
37518;DHT22;23366;52.498;13.446;2023-02-28T08:50:06;8.80;65.60
37518;DHT22;23366;52.498;13.446;2023-02-28T08:52:32;8.50;65.50
37518;DHT22;23366;52.498;13.446;2023-02-28T08:54:58;8.40;66.80
37518;DHT22;23366;52.498;13.446;2023-02-28T08:57:23;8.10;65.70
37518;DHT22;23366;52.498;13.446;2023-02-28T08:59:51;7.60;67.90
37518;DHT22;23366;52.498;13.446;2023-02-28T09:02:17;7.30;69.80
37518;DHT22;23366;52.498;13.446;2023-02-28T09:04:42;7.30;68.20
37518;DHT22;23366;52.498;13.446;2023-02-28T09:07:11;7.10;68.20
37518;DHT22;23366;52.498;13.446;2023-02-28T09:09:36;6.80;69.70
37518;DHT22;23366;52.498;13.446;2023-02-28T09:12:02;6.70;71.70
37518;DHT22;23366;52.498;13.446;2023-02-28T09:14:28;6.60;70.90
37518;DHT22;23366;52.498;13.446;2023-02-28T09:16:53;6.40;70.00
37518;DHT22;23366;52.498;13.446;2023-02-28T09:19:20;6.30;70.80
37518;DHT22;23366;52.498;13.446;2023-02-28T09:21:45;6.20;70.30
37518;DHT22;23366;52.498;13.446;2023-02-28T09:24:11;6.20;71.30
37518;DHT22;23366;52.498;13.446;2023-02-28T09:26:39;6.10;71.40
37518;DHT22;23366;52.498;13.446;2023-02-28T09:29:05;6.10;71.50
37518;DHT22;23366;52.498;13.446;2023-02-28T09:31:31;6.10;72.50
37518;DHT22;23366;52.498;13.446;2023-02-28T09:33:58;6.30;72.00
37518;DHT22;23366;52.498;13.446;2023-02-28T09:36:25;6.30;72.30
37518;DHT22;23366;52.498;13.446;2023-02-28T09:38:51;6.20;73.00
37518;DHT22;23366;52.498;13.446;2023-02-28T09:41:24;6.30;72.60
37518;DHT22;23366;52.498;13.446;2023-02-28T09:44:00;6.20;72.90
37518;DHT22;23366;52.498;13.446;2023-02-28T09:46:47;6.30;74.20
37518;DHT22;23366;52.498;13.446;2023-02-28T09:49:19;6.40;72.10
37518;DHT22;23366;52.498;13.446;2023-02-28T09:52:01;6.40;72.20
37518;DHT22;23366;52.498;13.446;2023-02-28T09:54:31;6.30;73.10
37518;DHT22;23366;52.498;13.446;2023-02-28T10:05:41;6.40;73.60
37518;DHT22;23366;52.498;13.446;2023-02-28T10:08:18;6.30;73.00
37518;DHT22;23366;52.498;13.446;2023-02-28T10:10:47;6.30;72.40
37518;DHT22;23366;52.498;13.446;2023-02-28T10:13:22;6.40;72.80
37518;DHT22;23366;52.498;13.446;2023-02-28T10:15:52;6.30;72.90
37518;DHT22;23366;52.498;13.446;2023-02-28T10:18:24;6.30;72.30
37518;DHT22;23366;52.498;13.446;2023-02-28T10:20:51;6.20;72.50
37518;DHT22;23366;52.498;13.446;2023-02-28T10:23:25;6.00;73.70
37518;DHT22;23366;52.498;13.446;2023-02-28T10:25:59;5.90;73.80
37518;DHT22;23366;52.498;13.446;2023-02-28T10:28:26;5.80;73.80
37518;DHT22;23366;52.498;13.446;2023-02-28T10:30:54;5.80;73.60
37518;DHT22;23366;52.498;13.446;2023-02-28T10:33:34;5.80;74.80
37518;DHT22;23366;52.498;13.446;2023-02-28T10:36:00;5.80;75.00
37518;DHT22;23366;52.498;13.446;2023-02-28T10:38:37;5.80;74.20
37518;DHT22;23366;52.498;13.446;2023-02-28T10:41:11;5.70;74.60
37518;DHT22;23366;52.498;13.446;2023-02-28T10:43:39;5.70;74.50
37518;DHT22;23366;52.498;13.446;2023-02-28T10:46:15;5.90;73.40
37518;DHT22;23366;52.498;13.446;2023-02-28T10:49:14;5.70;74.20
37518;DHT22;23366;52.498;13.446;2023-02-28T10:51:41;5.70;74.70
37518;DHT22;23366;52.498;13.446;2023-02-28T10:54:19;5.70;74.40
37518;DHT22;23366;52.498;13.446;2023-02-28T10:56:44;5.80;74.60
37518;DHT22;23366;52.498;13.446;2023-02-28T10:59:30;5.90;74.80
37518;DHT22;23366;52.498;13.446;2023-02-28T11:01:56;6.00;74.40
37518;DHT22;23366;52.498;13.446;2023-02-28T11:06:59;5.80;75.00
37518;DHT22;23366;52.498;13.446;2023-02-28T11:09:30;5.80;76.10
37518;DHT22;23366;52.498;13.446;2023-02-28T11:11:56;5.90;76.10
37518;DHT22;23366;52.498;13.446;2023-02-28T11:14:25;5.90;75.70
37518;DHT22;23366;52.498;13.446;2023-02-28T11:16:52;6.00;75.50
37518;DHT22;23366;52.498;13.446;2023-02-28T11:19:39;6.10;75.00
37518;DHT22;23366;52.498;13.446;2023-02-28T11:22:06;6.10;75.50
37518;DHT22;23366;52.498;13.446;2023-02-28T11:24:43;6.20;76.10
37518;DHT22;23366;52.498;13.446;2023-02-28T11:27:39;6.20;75.30
37518;DHT22;23366;52.498;13.446;2023-02-28T11:30:33;6.20;75.30
37518;DHT22;23366;52.498;13.446;2023-02-28T11:33:00;6.10;75.90
37518;DHT22;23366;52.498;13.446;2023-02-28T11:35:39;6.10;76.50
37518;DHT22;23366;52.498;13.446;2023-02-28T11:38:09;6.10;75.90
37518;DHT22;23366;52.498;13.446;2023-02-28T11:40:50;6.10;76.10
37518;DHT22;23366;52.498;13.446;2023-02-28T11:46:24;6.20;77.20
37518;DHT22;23366;52.498;13.446;2023-02-28T11:49:01;6.10;76.20
37518;DHT22;23366;52.498;13.446;2023-02-28T11:51:33;6.20;76.70
37518;DHT22;23366;52.498;13.446;2023-02-28T11:54:24;6.20;75.80
37518;DHT22;23366;52.498;13.446;2023-02-28T12:03:01;6.00;76.80
37518;DHT22;23366;52.498;13.446;2023-02-28T12:05:41;6.10;78.50
37518;DHT22;23366;52.498;13.446;2023-02-28T12:16:47;6.00;78.10
37518;DHT22;23366;52.498;13.446;2023-02-28T12:22:32;5.90;79.20
37518;DHT22;23366;52.498;13.446;2023-02-28T12:27:34;5.90;78.40
37518;DHT22;23366;52.498;13.446;2023-02-28T12:30:21;6.00;77.10
37518;DHT22;23366;52.498;13.446;2023-02-28T12:32:57;6.00;77.20
37518;DHT22;23366;52.498;13.446;2023-02-28T12:35:44;6.00;77.50
37518;DHT22;23366;52.498;13.446;2023-02-28T12:38:16;5.90;77.50
37518;DHT22;23366;52.498;13.446;2023-02-28T12:40:47;5.90;76.80
37518;DHT22;23366;52.498;13.446;2023-02-28T12:43:15;5.80;77.80
37518;DHT22;23366;52.498;13.446;2023-02-28T12:45:55;5.80;77.90
37518;DHT22;23366;52.498;13.446;2023-02-28T12:48:27;5.80;76.80
37518;DHT22;23366;52.498;13.446;2023-02-28T12:50:55;5.80;77.40
37518;DHT22;23366;52.498;13.446;2023-02-28T12:59:40;5.80;76.50
37518;DHT22;23366;52.498;13.446;2023-02-28T13:03:10;5.90;77.80
37518;DHT22;23366;52.498;13.446;2023-02-28T13:09:59;6.10;76.80
37518;DHT22;23366;52.498;13.446;2023-02-28T13:13:16;6.10;76.10
37518;DHT22;23366;52.498;13.446;2023-02-28T13:16:08;6.00;75.60
37518;DHT22;23366;52.498;13.446;2023-02-28T13:18:42;6.10;75.60
37518;DHT22;23366;52.498;13.446;2023-02-28T13:21:21;6.00;75.30
37518;DHT22;23366;52.498;13.446;2023-02-28T13:24:03;6.00;75.10
37518;DHT22;23366;52.498;13.446;2023-02-28T13:40:22;6.20;75.30
37518;DHT22;23366;52.498;13.446;2023-02-28T13:42:51;6.30;75.00
37518;DHT22;23366;52.498;13.446;2023-02-28T13:45:22;6.30;75.50
37518;DHT22;23366;52.498;13.446;2023-02-28T13:47:59;6.20;74.80
37518;DHT22;23366;52.498;13.446;2023-02-28T14:01:26;6.00;76.80
37518;DHT22;23366;52.498;13.446;2023-02-28T14:06:47;6.00;77.60
37518;DHT22;23366;52.498;13.446;2023-02-28T14:09:25;6.00;77.60
37518;DHT22;23366;52.498;13.446;2023-02-28T14:11:51;6.00;78.10
37518;DHT22;23366;52.498;13.446;2023-02-28T14:17:06;6.00;77.30
37518;DHT22;23366;52.498;13.446;2023-02-28T14:19:35;6.10;76.10
37518;DHT22;23366;52.498;13.446;2023-02-28T14:25:37;6.00;76.30
37518;DHT22;23366;52.498;13.446;2023-02-28T14:31:21;6.00;77.30
37518;DHT22;23366;52.498;13.446;2023-02-28T14:34:20;6.00;77.20
37518;DHT22;23366;52.498;13.446;2023-02-28T14:36:51;6.00;77.00
37518;DHT22;23366;52.498;13.446;2023-02-28T14:39:23;6.00;78.20
37518;DHT22;23366;52.498;13.446;2023-02-28T14:41:50;5.90;77.00
37518;DHT22;23366;52.498;13.446;2023-02-28T14:46:45;5.90;77.00
37518;DHT22;23366;52.498;13.446;2023-02-28T14:49:20;5.90;77.70
37518;DHT22;23366;52.498;13.446;2023-02-28T14:51:50;5.90;77.80
37518;DHT22;23366;52.498;13.446;2023-02-28T14:54:26;5.90;78.00
37518;DHT22;23366;52.498;13.446;2023-02-28T14:56:52;5.90;76.80
37518;DHT22;23366;52.498;13.446;2023-02-28T15:01:52;5.80;76.70
37518;DHT22;23366;52.498;13.446;2023-02-28T15:04:26;5.80;77.50
37518;DHT22;23366;52.498;13.446;2023-02-28T15:07:09;5.90;77.80
37518;DHT22;23366;52.498;13.446;2023-02-28T15:09:35;5.80;77.70
37518;DHT22;23366;52.498;13.446;2023-02-28T15:12:01;5.80;76.60
37518;DHT22;23366;52.498;13.446;2023-02-28T15:14:27;5.80;75.70
37518;DHT22;23366;52.498;13.446;2023-02-28T15:16:59;5.70;77.60
37518;DHT22;23366;52.498;13.446;2023-02-28T15:19:29;5.60;76.80
37518;DHT22;23366;52.498;13.446;2023-02-28T15:22:11;5.60;76.80
37518;DHT22;23366;52.498;13.446;2023-02-28T15:24:52;5.60;77.10
37518;DHT22;23366;52.498;13.446;2023-02-28T15:29:54;5.50;77.80
37518;DHT22;23366;52.498;13.446;2023-02-28T15:32:35;5.60;77.90
37518;DHT22;23366;52.498;13.446;2023-02-28T15:35:28;5.50;77.20
37518;DHT22;23366;52.498;13.446;2023-02-28T15:37:56;5.50;77.30
37518;DHT22;23366;52.498;13.446;2023-02-28T15:40:37;5.50;77.90
37518;DHT22;23366;52.498;13.446;2023-02-28T15:43:18;5.40;77.80
37518;DHT22;23366;52.498;13.446;2023-02-28T15:45:49;5.40;78.70
37518;DHT22;23366;52.498;13.446;2023-02-28T15:48:22;5.40;78.50
37518;DHT22;23366;52.498;13.446;2023-02-28T15:50:54;5.30;79.10
37518;DHT22;23366;52.498;13.446;2023-02-28T15:53:24;5.30;78.90
37518;DHT22;23366;52.498;13.446;2023-02-28T15:56:01;5.20;79.10
37518;DHT22;23366;52.498;13.446;2023-02-28T15:58:27;5.20;79.70
37518;DHT22;23366;52.498;13.446;2023-02-28T16:01:33;5.20;80.00
37518;DHT22;23366;52.498;13.446;2023-02-28T16:04:13;5.10;81.10
37518;DHT22;23366;52.498;13.446;2023-02-28T16:09:23;5.10;80.60
37518;DHT22;23366;52.498;13.446;2023-02-28T16:11:50;5.00;81.50
37518;DHT22;23366;52.498;13.446;2023-02-28T16:14:23;5.00;81.90
37518;DHT22;23366;52.498;13.446;2023-02-28T16:16:54;5.00;81.30
37518;DHT22;23366;52.498;13.446;2023-02-28T16:19:20;5.00;81.70
37518;DHT22;23366;52.498;13.446;2023-02-28T16:21:46;5.00;82.40
37518;DHT22;23366;52.498;13.446;2023-02-28T16:24:12;4.90;82.30
37518;DHT22;23366;52.498;13.446;2023-02-28T16:26:42;4.90;83.10
37518;DHT22;23366;52.498;13.446;2023-02-28T16:29:13;4.90;83.30
37518;DHT22;23366;52.498;13.446;2023-02-28T16:31:42;4.90;82.20
37518;DHT22;23366;52.498;13.446;2023-02-28T16:34:07;4.80;82.10
37518;DHT22;23366;52.498;13.446;2023-02-28T16:36:33;4.80;82.60
37518;DHT22;23366;52.498;13.446;2023-02-28T16:38:58;4.80;82.50
37518;DHT22;23366;52.498;13.446;2023-02-28T16:41:26;4.80;82.70
37518;DHT22;23366;52.498;13.446;2023-02-28T16:43:54;4.70;83.60
37518;DHT22;23366;52.498;13.446;2023-02-28T16:46:24;4.70;83.60
37518;DHT22;23366;52.498;13.446;2023-02-28T16:48:50;4.60;83.90
37518;DHT22;23366;52.498;13.446;2023-02-28T16:51:17;4.60;83.70
37518;DHT22;23366;52.498;13.446;2023-02-28T16:53:44;4.60;84.40
37518;DHT22;23366;52.498;13.446;2023-02-28T16:56:21;4.50;84.20
37518;DHT22;23366;52.498;13.446;2023-02-28T16:58:48;4.60;83.80
37518;DHT22;23366;52.498;13.446;2023-02-28T17:01:14;4.50;84.40
37518;DHT22;23366;52.498;13.446;2023-02-28T17:03:40;4.50;84.40
37518;DHT22;23366;52.498;13.446;2023-02-28T17:08:58;4.40;85.30
37518;DHT22;23366;52.498;13.446;2023-02-28T17:11:25;4.40;84.80
37518;DHT22;23366;52.498;13.446;2023-02-28T17:13:51;4.40;84.70
37518;DHT22;23366;52.498;13.446;2023-02-28T17:16:35;4.30;85.30
37518;DHT22;23366;52.498;13.446;2023-02-28T17:19:06;4.30;85.90
37518;DHT22;23366;52.498;13.446;2023-02-28T17:21:32;4.30;85.80
37518;DHT22;23366;52.498;13.446;2023-02-28T17:23:59;4.20;86.20
37518;DHT22;23366;52.498;13.446;2023-02-28T17:26:25;4.30;85.50
37518;DHT22;23366;52.498;13.446;2023-02-28T17:28:55;4.20;86.60
37518;DHT22;23366;52.498;13.446;2023-02-28T17:31:23;4.20;85.90
37518;DHT22;23366;52.498;13.446;2023-02-28T17:33:48;4.20;85.90
37518;DHT22;23366;52.498;13.446;2023-02-28T17:36:16;4.20;86.60
37518;DHT22;23366;52.498;13.446;2023-02-28T17:38:43;4.20;86.70
37518;DHT22;23366;52.498;13.446;2023-02-28T17:41:17;4.10;86.80
37518;DHT22;23366;52.498;13.446;2023-02-28T17:43:49;4.10;87.50
37518;DHT22;23366;52.498;13.446;2023-02-28T17:46:17;4.10;87.50
37518;DHT22;23366;52.498;13.446;2023-02-28T17:48:51;4.10;87.80
37518;DHT22;23366;52.498;13.446;2023-02-28T17:51:23;4.00;88.00